Time;durP1;ratioP1;P1;durP2;ratioP2;P2;SDS_P1;SDS_P2;PMS_P1;PMS_P2;Temp;Humidity;BMP_temperature;BMP_pressure;BME280_temperature;BME280_humidity;BME280_pressure;Samples;Min_cycle;Max_cycle;Signal;HPM_P1;HPM_P2
2022/11/09 00:01:40;;;;;;;5.25;1.50;;;;;;;11.51;100.00;100361.84;5022597;28;20053;-83
2022/11/09 00:04:09;;;;;;;6.68;1.73;;;;;;;11.47;100.00;100370.69;4985785;28;20241;-82
2022/11/09 00:06:38;;;;;;;4.50;1.52;;;;;;;11.42;100.00;100365.44;5007163;28;20050;-83
2022/11/09 00:09:08;;;;;;;3.92;1.60;;;;;;;11.37;100.00;100369.88;5014253;28;20084;-83
2022/11/09 00:11:37;;;;;;;7.32;2.13;;;;;;;11.34;100.00;100369.03;5006489;28;20052;-83
2022/11/09 00:14:05;;;;;;;5.95;1.80;;;;;;;11.31;100.00;100367.28;4999806;28;20350;-82
2022/11/09 00:16:37;;;;;;;;;;;;;;;11.29;100.00;100375.22;5004361;28;20042;-82
2022/11/09 00:19:08;;;;;;;3.72;1.50;;;;;;;11.25;100.00;100367.34;5000302;28;21393;-83
2022/11/09 00:21:36;;;;;;;4.50;1.73;;;;;;;11.23;100.00;100377.91;5036981;28;20021;-84
2022/11/09 00:24:04;;;;;;;6.88;1.80;;;;;;;11.22;100.00;100373.50;4999044;28;20676;-82
2022/11/09 00:26:33;;;;;;;2.22;1.83;;;;;;;11.20;100.00;100367.38;5011286;28;20423;-82
2022/11/09 00:29:01;;;;;;;4.55;2.13;;;;;;;11.20;100.00;100358.59;5026058;28;20057;-83
2022/11/09 00:31:30;;;;;;;6.13;2.78;;;;;;;11.21;100.00;100360.31;5004776;28;20039;-83
2022/11/09 00:33:58;;;;;;;4.78;2.35;;;;;;;11.21;100.00;100349.78;4958861;28;20410;-83
2022/11/09 00:36:28;;;;;;;7.68;2.70;;;;;;;11.22;100.00;100352.41;5005934;28;20041;-83
2022/11/09 00:38:59;;;;;;;9.35;2.92;;;;;;;11.23;100.00;100355.94;5026302;28;20056;-83
2022/11/09 00:41:28;;;;;;;5.63;2.70;;;;;;;11.24;100.00;100353.25;5026051;28;20042;-84
2022/11/09 00:43:56;;;;;;;7.38;2.92;;;;;;;11.25;100.00;100341.84;5008358;28;20038;-82
2022/11/09 00:46:25;;;;;;;6.28;2.88;;;;;;;11.27;100.00;100341.84;5033597;28;20037;-82
2022/11/09 00:48:55;;;;;;;6.85;2.40;;;;;;;11.27;100.00;100342.69;4991612;28;20508;-83
2022/11/09 00:51:24;;;;;;;7.72;3.03;;;;;;;11.28;100.00;100346.22;5047550;28;20045;-83
2022/11/09 00:53:59;;;;;;;9.07;3.08;;;;;;;11.28;100.00;100352.34;5009496;28;20526;-82
2022/11/09 00:56:29;;;;;;;8.03;2.60;;;;;;;11.29;100.00;100350.59;5006616;28;20042;-82
2022/11/09 00:58:58;;;;;;;3.50;2.35;;;;;;;11.29;100.00;100356.75;5027848;28;20307;-82
2022/11/09 01:01:26;;;;;;;6.25;2.25;;;;;;;11.29;100.00;100351.47;5025428;28;20041;-82
2022/11/09 01:03:55;;;;;;;7.15;2.60;;;;;;;11.30;100.00;100354.97;5004476;28;20044;-82
2022/11/09 01:06:25;;;;;;;4.82;2.78;;;;;;;11.27;100.00;100350.63;5013923;28;20037;-83
2022/11/09 01:08:53;;;;;;;5.63;2.77;;;;;;;11.25;100.00;100352.41;5028611;28;20052;-82
2022/11/09 01:11:23;;;;;;;3.50;2.17;;;;;;;11.21;100.00;100350.66;5031972;28;20289;-81
2022/11/09 01:13:54;;;;;;;3.33;2.00;;;;;;;11.18;100.00;100350.69;5012399;28;20376;-82
2022/11/09 01:16:23;;;;;;;3.17;2.05;;;;;;;11.17;100.00;100348.94;5037097;28;20041;-82
2022/11/09 01:18:53;;;;;;;3.70;2.20;;;;;;;11.15;100.00;100341.91;5032877;28;20053;-82
2022/11/09 01:21:25;;;;;;;3.20;1.80;;;;;;;11.12;100.00;100348.09;5011425;28;20048;-82
2022/11/09 01:23:57;;;;;;;5.80;2.40;;;;;;;11.10;100.00;100341.97;5033041;28;20049;-82
2022/11/09 01:26:28;;;;;;;3.97;1.90;;;;;;;11.07;100.00;100347.25;5012173;28;20052;-82
2022/11/09 01:28:56;;;;;;;4.25;2.22;;;;;;;11.03;100.00;100342.88;5021731;28;20046;-82
2022/11/09 01:31:25;;;;;;;6.68;2.00;;;;;;;11.00;100.00;100341.16;4998982;28;20045;-81
2022/11/09 01:33:54;;;;;;;4.85;1.80;;;;;;;10.97;100.00;100333.25;5013468;28;20049;-82
2022/11/09 01:36:25;;;;;;;3.80;2.15;;;;;;;10.94;100.00;100341.16;4992274;28;20037;-82
2022/11/09 01:38:53;;;;;;;7.20;1.90;;;;;;;10.92;100.00;100341.16;5007277;28;20045;-82
2022/11/09 01:41:24;;;;;;;5.45;2.20;;;;;;;10.89;100.00;100337.72;5025218;28;20046;-82
2022/11/09 01:44:19;;;;;;;4.82;2.28;;;;;;;10.89;100.00;100342.97;5026008;28;20050;-81
2022/11/09 01:46:54;;;;;;;8.30;2.72;;;;;;;10.89;100.00;100341.22;5023079;28;20514;-82
2022/11/09 01:49:39;;;;;;;3.40;2.05;;;;;;;10.88;100.00;100347.34;5013536;28;20543;-81
2022/11/09 01:52:16;;;;;;;5.25;2.28;;;;;;;10.91;100.00;100342.06;5010756;28;20042;-81
2022/11/09 01:54:50;;;;;;;5.88;2.50;;;;;;;10.92;100.00;100343.81;5005926;28;20053;-81
2022/11/09 01:57:25;;;;;;;8.77;2.85;;;;;;;10.92;100.00;100341.16;5012704;28;20533;-81
2022/11/09 01:59:59;;;;;;;4.53;2.65;;;;;;;10.91;100.00;100342.06;5010823;28;20534;-81
2022/11/09 02:02:28;;;;;;;5.70;2.45;;;;;;;10.93;100.00;100347.34;5029312;28;20045;-81
2022/11/09 02:05:07;;;;;;;6.88;2.38;;;;;;;10.93;100.00;100337.66;5016140;28;20018;-81
2022/11/09 02:07:39;;;;;;;6.07;2.42;;;;;;;10.95;100.00;100345.56;5024584;28;20054;-81
2022/11/09 02:10:24;;;;;;;5.47;2.40;;;;;;;10.97;100.00;100343.78;5003450;28;20021;-82
2022/11/09 02:12:53;;;;;;;6.15;2.30;;;;;;;10.99;100.00;100343.78;5029660;28;20045;-81
2022/11/09 02:15:25;;;;;;;6.63;2.60;;;;;;;11.01;100.00;100342.88;5033187;28;20041;-81
2022/11/09 02:17:55;;;;;;;11.00;2.50;;;;;;;11.04;100.00;100341.97;5031061;28;20045;-82
2022/11/09 02:20:26;;;;;;;7.72;2.20;;;;;;;11.07;100.00;100334.06;5005119;28;20492;-81
2022/11/09 02:22:55;;;;;;;8.98;2.58;;;;;;;11.07;100.00;100326.16;5029822;28;20726;-81
2022/11/09 02:25:32;;;;;;;7.45;2.67;;;;;;;11.08;100.00;100327.91;5010263;28;20056;-81
2022/11/09 02:28:03;;;;;;;3.10;2.27;;;;;;;11.10;100.00;100331.41;5008155;28;20045;-81
2022/11/09 02:30:34;;;;;;;9.45;3.30;;;;;;;11.12;100.00;100334.91;4999394;28;20637;-82
2022/11/09 02:33:03;;;;;;;8.02;3.00;;;;;;;11.13;100.00;100334.00;5015258;28;20034;-81
2022/11/09 02:35:32;;;;;;;8.10;2.90;;;;;;;11.15;100.00;100344.53;5021418;28;20049;-82
2022/11/09 02:38:00;;;;;;;10.75;2.55;;;;;;;11.12;100.00;100342.81;5017392;28;20573;-82
2022/11/09 02:40:36;;;;;;;10.70;2.45;;;;;;;11.11;100.00;100338.41;4979838;28;20053;-82
2022/11/09 02:43:07;;;;;;;6.32;2.30;;;;;;;11.09;100.00;100342.84;5016570;28;20044;-81
2022/11/09 02:45:36;;;;;;;7.47;2.80;;;;;;;11.06;100.00;100341.09;5024130;28;20403;-81
2022/11/09 02:48:05;;;;;;;4.10;2.30;;;;;;;11.05;100.00;100341.09;5030204;28;20533;-81
2022/11/09 02:50:37;;;;;;;9.23;2.42;;;;;;;11.02;100.00;100334.09;5031675;28;20044;-82
2022/11/09 02:53:06;;;;;;;8.75;2.83;;;;;;;11.01;100.00;100342.03;5011953;28;20530;-83
2022/11/09 02:55:37;;;;;;;9.82;2.22;;;;;;;10.97;100.00;100335.88;5019499;28;20045;-82
2022/11/09 02:58:07;;;;;;;5.90;1.90;;;;;;;10.95;100.00;100336.78;4986695;28;20342;-82
2022/11/09 03:00:36;;;;;;;7.07;2.53;;;;;;;10.91;100.00;100336.81;5032227;28;20050;-81
2022/11/09 03:03:05;;;;;;;6.28;2.38;;;;;;;10.89;100.00;100335.06;5017437;28;20026;-82
2022/11/09 03:05:34;;;;;;;7.43;2.80;;;;;;;10.86;100.00;100330.69;5013206;28;20046;-81
2022/11/09 03:08:09;;;;;;;8.52;2.72;;;;;;;10.85;100.00;100335.94;5028875;28;20407;-81
2022/11/09 03:10:39;;;;;;;9.10;3.05;;;;;;;10.82;100.00;100326.31;5014720;28;20049;-81
2022/11/09 03:13:07;;;;;;;7.07;2.53;;;;;;;10.81;100.00;100339.50;5003226;28;20048;-82
2022/11/09 03:15:37;;;;;;;8.07;3.47;;;;;;;10.79;100.00;100339.50;5038422;28;20071;-83
2022/11/09 03:18:11;;;;;;;4.47;2.22;;;;;;;10.79;100.00;100346.53;5012544;28;20052;-83
2022/11/09 03:20:40;;;;;;;4.15;1.92;;;;;;;10.77;100.00;100329.84;5017239;28;20045;-83
2022/11/09 03:23:12;;;;;;;6.88;2.75;;;;;;;10.76;100.00;100331.63;4979473;28;20046;-83
2022/11/09 03:25:40;;;;;;;4.85;2.55;;;;;;;10.75;100.00;100334.25;5025967;28;20049;-83
2022/11/09 03:28:09;;;;;;;11.95;2.72;;;;;;;10.73;100.00;100345.69;4973935;28;21221;-83
2022/11/09 03:30:40;;;;;;;5.85;2.30;;;;;;;10.72;100.00;100345.72;5007225;28;20042;-83
2022/11/09 03:33:11;;;;;;;4.18;2.15;;;;;;;10.70;100.00;100340.44;5001210;28;20046;-82
2022/11/09 03:35:42;;;;;;;4.82;2.42;;;;;;;10.68;100.00;100342.22;4984848;28;20022;-81
2022/11/09 03:38:12;;;;;;;7.20;2.30;;;;;;;10.69;100.00;100351.00;5016374;28;20054;-83
2022/11/09 03:40:41;;;;;;;6.72;2.75;;;;;;;10.67;100.00;100350.13;5000346;28;20056;-83
2022/11/09 03:43:14;;;;;;;4.72;2.25;;;;;;;10.66;100.00;100357.16;5022709;28;20037;-82
2022/11/09 03:45:43;;;;;;;5.57;2.05;;;;;;;10.65;100.00;100354.53;4974456;28;20062;-83
2022/11/09 03:48:12;;;;;;;6.18;2.83;;;;;;;10.65;100.00;100349.25;5022212;28;20151;-82
2022/11/09 03:50:41;;;;;;;6.75;2.20;;;;;;;10.65;100.00;100336.09;5002284;28;20041;-83
2022/11/09 03:53:11;;;;;;;11.25;2.60;;;;;;;10.64;100.00;100344.84;5010173;28;20159;-83
2022/11/09 03:55:39;;;;;;;5.73;2.10;;;;;;;10.65;100.00;100352.75;5027653;28;20053;-83
2022/11/09 03:58:10;;;;;;;8.82;2.22;;;;;;;10.65;100.00;100342.22;5034022;28;20443;-84
2022/11/09 04:00:39;;;;;;;5.25;2.20;;;;;;;10.66;100.00;100359.78;5010576;28;20513;-82
2022/11/09 04:03:07;;;;;;;9.52;2.53;;;;;;;10.66;100.00;100367.69;4994578;28;20167;-82
2022/11/09 04:05:36;;;;;;;7.13;2.30;;;;;;;10.67;100.00;100369.44;5029152;28;20061;-82
2022/11/09 04:08:04;;;;;;;12.20;2.40;;;;;;;10.68;100.00;100376.47;5020291;28;20360;-81
2022/11/09 04:10:33;;;;;;;5.97;2.13;;;;;;;10.69;100.00;100369.44;5030215;28;20072;-81
2022/11/09 04:13:02;;;;;;;5.25;2.60;;;;;;;10.68;100.00;100381.75;5030985;28;20080;-81
2022/11/09 04:15:30;;;;;;;4.10;1.80;;;;;;;10.68;100.00;100376.47;5011187;28;20065;-82
2022/11/09 04:18:00;;;;;;;8.32;2.45;;;;;;;10.67;100.00;100372.06;4995219;28;20038;-81
2022/11/09 04:20:31;;;;;;;9.02;2.03;;;;;;;10.67;100.00;100368.56;5031694;28;20266;-82
2022/11/09 04:23:02;;;;;;;10.98;2.55;;;;;;;10.67;100.00;100373.84;5033531;28;20518;-81
2022/11/09 04:25:38;;;;;;;9.90;2.13;;;;;;;10.65;100.00;100368.56;5016931;28;20057;-81
2022/11/09 04:28:10;;;;;;;10.68;2.22;;;;;;;10.64;100.00;100369.47;5031834;28;20537;-81
2022/11/09 04:30:39;;;;;;;9.25;2.40;;;;;;;10.62;100.00;100371.22;5013408;28;20076;-82
2022/11/09 04:33:08;;;;;;;7.72;3.05;;;;;;;10.61;100.00;100372.09;5028118;28;20057;-82
2022/11/09 04:35:37;;;;;;;10.15;2.45;;;;;;;10.59;100.00;100376.50;5027267;28;20625;-82
2022/11/09 04:38:09;;;;;;;7.28;2.17;;;;;;;10.58;100.00;100374.75;5016573;28;20550;-82
2022/11/09 04:40:37;;;;;;;7.88;1.90;;;;;;;10.58;100.00;100384.41;5015609;28;20053;-81
2022/11/09 04:43:12;;;;;;;10.23;2.55;;;;;;;10.56;100.00;100370.38;5022903;28;20202;-81
2022/11/09 04:45:41;;;;;;;8.88;2.25;;;;;;;10.54;100.00;100387.06;4991708;28;20037;-81
2022/11/09 04:48:10;;;;;;;9.65;2.55;;;;;;;10.53;100.00;100385.31;5028623;28;20447;-81
2022/11/09 04:50:40;;;;;;;11.55;3.75;;;;;;;10.52;100.00;100380.03;5033478;28;20080;-82
2022/11/09 04:53:14;;;;;;;10.07;2.15;;;;;;;10.50;100.00;100384.44;5031863;28;20510;-82
2022/11/09 04:55:43;;;;;;;10.35;2.60;;;;;;;10.51;100.00;100391.50;5036513;28;20056;-81
2022/11/09 04:58:11;;;;;;;7.85;2.28;;;;;;;10.51;100.00;100394.13;5016582;28;20399;-81
2022/11/09 05:00:40;;;;;;;8.45;2.10;;;;;;;10.51;100.00;100387.09;5014472;28;20049;-81
2022/11/09 05:03:08;;;;;;;9.13;2.75;;;;;;;10.52;100.00;100390.59;4996678;28;20046;-82
2022/11/09 05:05:37;;;;;;;8.68;2.28;;;;;;;10.52;100.00;100396.72;5012738;28;20030;-82
2022/11/09 05:08:14;;;;;;;12.00;2.55;;;;;;;10.53;100.00;100395.84;5015536;28;20081;-82
2022/11/09 05:10:42;;;;;;;6.90;2.03;;;;;;;10.56;100.00;100386.19;5030581;28;20052;-83
2022/11/09 05:13:12;;;;;;;6.85;2.17;;;;;;;10.56;100.00;100386.19;5020518;28;20065;-82
2022/11/09 05:15:41;;;;;;;5.77;2.33;;;;;;;10.57;100.00;100393.19;5016712;28;20057;-81
2022/11/09 05:18:09;;;;;;;4.93;2.30;;;;;;;10.58;100.00;100397.59;4994832;28;20377;-81
2022/11/09 05:20:38;;;;;;;9.60;2.22;;;;;;;10.59;100.00;100399.34;4987258;28;20045;-81
2022/11/09 05:25:53;;;;;;;16.33;3.05;;;;;;;10.59;100.00;100402.00;5013388;28;20037;-81
2022/11/09 05:28:22;;;;;;;15.20;2.55;;;;;;;10.58;100.00;100389.69;4983498;28;20605;-84
2022/11/09 05:30:52;;;;;;;7.30;2.53;;;;;;;10.58;100.00;100380.00;5019787;28;20041;-81
2022/11/09 05:33:21;;;;;;;11.43;2.25;;;;;;;10.60;100.00;100395.81;5006155;28;20396;-81
2022/11/09 05:35:53;;;;;;;5.55;2.20;;;;;;;10.60;100.00;100398.47;4997303;28;20503;-84
2022/11/09 05:38:24;;;;;;;8.80;2.72;;;;;;;10.61;100.00;100400.22;5033185;28;20054;-83
2022/11/09 05:40:52;;;;;;;;;;;;;;;10.61;100.00;100410.75;5022278;28;20053;-81
2022/11/09 05:43:22;;;;;;;8.68;2.47;;;;;;;10.61;100.00;100422.16;5028383;28;20149;-82
2022/11/09 05:45:50;;;;;;;15.02;2.80;;;;;;;10.62;100.00;100416.00;5024948;28;20046;-83
2022/11/09 05:48:19;;;;;;;8.45;2.50;;;;;;;10.62;100.00;100416.00;5008723;28;23210;-82
2022/11/09 05:50:48;;;;;;;8.32;2.33;;;;;;;10.64;100.00;100408.09;5032774;28;20057;-81
2022/11/09 05:53:27;;;;;;;5.45;2.58;;;;;;;10.65;100.00;100418.63;5020577;28;20045;-81
2022/11/09 05:55:55;;;;;;;11.82;2.30;;;;;;;10.65;100.00;100413.38;5029636;28;20053;-82
2022/11/09 05:58:23;;;;;;;8.27;2.50;;;;;;;10.67;100.00;100408.97;5030703;28;20056;-82
2022/11/09 06:01:00;;;;;;;10.77;2.67;;;;;;;10.69;100.00;100409.84;5028765;28;20052;-82
2022/11/09 06:03:28;;;;;;;6.07;1.85;;;;;;;10.70;100.00;100406.31;5006794;28;23278;-81
2022/11/09 06:06:02;;;;;;;10.00;2.20;;;;;;;10.70;100.00;100406.31;5031619;28;20042;-84
2022/11/09 06:08:36;;;;;;;13.13;3.28;;;;;;;10.69;100.00;100423.00;5027666;28;20403;-81
2022/11/09 06:11:07;;;;;;;10.45;3.97;;;;;;;10.70;100.00;100422.13;5025175;28;20030;-83
2022/11/09 06:13:37;;;;;;;6.15;2.40;;;;;;;10.68;100.00;100423.91;5027166;28;20499;-81
2022/11/09 06:16:08;;;;;;;13.18;3.53;;;;;;;10.69;100.00;100422.13;5013769;28;20029;-83
2022/11/09 06:18:37;;;;;;;13.27;3.28;;;;;;;10.69;100.00;100427.41;5004662;28;20063;-81
2022/11/09 06:21:06;;;;;;;9.77;1.95;;;;;;;10.69;100.00;100430.03;5018067;28;20053;-81
2022/11/09 06:23:36;;;;;;;6.05;2.08;;;;;;;10.69;100.00;100435.31;5016335;28;20041;-81
2022/11/09 06:26:08;;;;;;;10.82;2.63;;;;;;;10.68;100.00;100429.19;5027799;28;20384;-80
2022/11/09 06:28:38;;;;;;;9.10;2.47;;;;;;;10.68;100.00;100433.53;5026799;28;20049;-81
2022/11/09 06:31:15;;;;;;;9.13;2.45;;;;;;;10.65;100.00;100433.56;5031356;28;20038;-81
2022/11/09 06:33:43;;;;;;;5.57;2.17;;;;;;;10.64;100.00;100437.06;5006466;28;20029;-81
2022/11/09 06:36:12;;;;;;;9.27;2.88;;;;;;;10.62;100.00;100444.97;5014757;28;20042;-83
2022/11/09 06:38:41;;;;;;;9.52;2.42;;;;;;;10.64;100.00;100442.34;5028649;28;20378;-82
2022/11/09 06:41:10;;;;;;;6.68;2.00;;;;;;;10.63;100.00;100446.75;4999623;28;20053;-82
2022/11/09 06:43:38;;;;;;;9.77;2.22;;;;;;;10.62;100.00;100444.97;5023779;28;20045;-82
2022/11/09 06:46:10;;;;;;;10.40;2.92;;;;;;;10.62;100.00;100452.03;4991197;28;20046;-82
2022/11/09 06:48:39;;;;;;;7.93;2.80;;;;;;;10.62;100.00;100452.03;5002191;28;20061;-81
2022/11/09 06:51:09;;;;;;;8.00;2.22;;;;;;;10.61;100.00;100459.06;5018565;28;20041;-82
2022/11/09 06:53:40;;;;;;;9.23;2.63;;;;;;;10.59;100.00;100460.81;5012898;28;20057;-81
2022/11/09 06:56:08;;;;;;;8.82;2.30;;;;;;;10.58;100.00;100471.38;5022361;28;20258;-82
2022/11/09 06:58:38;;;;;;;7.40;2.63;;;;;;;10.56;100.00;100467.84;5028257;28;20041;-81
2022/11/09 07:01:09;;;;;;;11.25;2.47;;;;;;;10.54;100.00;100462.59;5007461;28;20443;-81
2022/11/09 07:03:41;;;;;;;6.47;2.05;;;;;;;10.53;100.00;100474.88;5006814;28;20079;-82
2022/11/09 07:06:11;;;;;;;7.45;2.25;;;;;;;10.52;100.00;100485.44;4974594;28;20050;-82
2022/11/09 07:08:45;;;;;;;11.95;3.22;;;;;;;10.51;100.00;100484.56;5008555;28;20048;-82
2022/11/09 07:11:15;;;;;;;6.80;2.03;;;;;;;10.50;100.00;100482.78;4988580;28;20306;-80
2022/11/09 07:13:48;;;;;;;9.00;2.13;;;;;;;10.52;100.00;100490.69;5017494;28;20037;-82
2022/11/09 07:16:21;;;;;;;12.98;3.40;;;;;;;10.51;100.00;100489.81;5027748;28;20056;-82
2022/11/09 07:18:50;;;;;;;7.57;1.98;;;;;;;10.52;100.00;100488.06;5009297;28;20496;-81
2022/11/09 07:21:19;;;;;;;8.05;2.13;;;;;;;10.52;100.00;100486.28;5003385;28;20045;-82
2022/11/09 07:23:48;;;;;;;8.60;2.00;;;;;;;10.52;100.00;100485.44;5016129;28;20046;-82
2022/11/09 07:26:16;;;;;;;10.52;2.58;;;;;;;10.54;100.00;100488.94;5013731;28;20503;-81
2022/11/09 07:28:47;;;;;;;12.93;2.40;;;;;;;10.56;100.00;100492.44;4994369;28;20056;-82
2022/11/09 07:31:15;;;;;;;8.85;2.25;;;;;;;10.57;100.00;100494.22;5010552;28;20061;-82
2022/11/09 07:33:44;;;;;;;9.02;2.33;;;;;;;10.57;100.00;100494.22;5005941;28;20046;-82
2022/11/09 07:36:13;;;;;;;8.88;2.25;;;;;;;10.58;100.00;100495.06;4997044;28;20056;-82
2022/11/09 07:38:48;;;;;;;8.48;1.73;;;;;;;10.60;100.00;100494.19;5006041;28;20049;-82
2022/11/09 07:41:18;;;;;;;7.68;1.92;;;;;;;10.61;100.00;100495.94;5015707;28;20072;-81
2022/11/09 07:43:46;;;;;;;9.52;2.55;;;;;;;10.63;100.00;100493.31;5001294;28;20388;-82
2022/11/09 07:46:14;;;;;;;8.15;2.20;;;;;;;10.64;100.00;100498.59;5017749;28;20042;-82
2022/11/09 07:48:43;;;;;;;10.57;2.05;;;;;;;10.66;100.00;100499.47;5024750;28;20407;-81
2022/11/09 07:51:11;;;;;;;8.52;2.20;;;;;;;10.68;100.00;100504.69;4999950;28;20041;-82
2022/11/09 07:53:39;;;;;;;9.27;2.40;;;;;;;10.69;100.00;100503.81;5024649;28;20042;-80
2022/11/09 07:56:08;;;;;;;14.70;2.65;;;;;;;10.72;100.00;100512.59;5016771;28;20050;-81
2022/11/09 07:58:36;;;;;;;6.28;1.98;;;;;;;10.76;100.00;100518.75;5003739;28;20050;-81
2022/11/09 08:01:09;;;;;;;13.65;3.00;;;;;;;10.81;100.00;100519.63;5011845;28;20312;-80
2022/11/09 08:03:38;;;;;;;6.85;1.92;;;;;;;10.85;100.00;100520.47;5014784;28;20050;-81
2022/11/09 08:06:06;;;;;;;8.07;2.10;;;;;;;10.90;100.00;100516.94;4996946;28;20045;-81
2022/11/09 08:08:45;;;;;;;12.43;2.50;;;;;;;10.97;100.00;100520.44;5035339;28;20522;-80
2022/11/09 08:11:14;;;;;;;10.27;2.88;;;;;;;11.02;100.00;100517.75;5019674;28;20504;-81
2022/11/09 08:13:44;;;;;;;10.63;2.17;;;;;;;11.08;100.00;100518.63;5016686;28;20057;-81
2022/11/09 08:16:13;;;;;;;8.43;1.92;;;;;;;11.12;100.00;100522.13;5010464;28;20042;-81
2022/11/09 08:18:41;;;;;;;9.85;2.78;;;;;;;11.15;100.00;100516.84;5028047;28;20057;-81
2022/11/09 08:21:10;;;;;;;7.50;2.30;;;;;;;11.19;100.00;100522.97;4992746;28;20041;-81
2022/11/09 08:23:38;;;;;;;10.07;2.38;;;;;;;11.23;100.00;100528.25;4991251;28;20026;-81
2022/11/09 08:26:09;;;;;;;8.63;2.55;;;;;;;11.27;100.00;100529.97;4999876;28;20061;-82
2022/11/09 08:28:37;;;;;;;12.05;2.72;;;;;;;11.30;100.00;100519.41;5013491;28;20391;-81
2022/11/09 08:31:08;;;;;;;6.32;2.25;;;;;;;11.34;100.00;100525.53;5018306;28;20046;-81
2022/11/09 08:33:40;;;;;;;12.75;2.45;;;;;;;11.38;100.00;100531.66;5013916;28;20053;-81
2022/11/09 08:36:14;;;;;;;8.25;2.75;;;;;;;11.42;100.00;100528.16;5017290;28;20081;-82
2022/11/09 08:38:44;;;;;;;5.80;2.10;;;;;;;11.44;100.00;100526.38;4971964;28;20258;-81
2022/11/09 08:41:14;;;;;;;11.57;2.20;;;;;;;11.47;100.00;100531.63;5026015;28;20034;-81
2022/11/09 08:43:42;;;;;;;7.22;2.15;;;;;;;11.50;100.00;100531.63;5019146;28;20034;-81
2022/11/09 08:46:11;;;;;;;9.13;2.65;;;;;;;11.55;100.00;100535.13;5008721;28;20038;-82
2022/11/09 08:48:41;;;;;;;10.02;2.08;;;;;;;11.58;100.00;100528.94;4980501;28;20046;-82
2022/11/09 08:51:10;;;;;;;6.28;2.13;;;;;;;11.62;100.00;100531.53;5026326;28;20053;-81
2022/11/09 08:53:38;;;;;;;11.27;2.10;;;;;;;11.66;100.00;100540.31;4999035;28;20052;-82
2022/11/09 08:56:08;;;;;;;9.20;2.30;;;;;;;11.70;100.00;100549.97;5018383;28;20042;-81
2022/11/09 08:58:37;;;;;;;5.28;2.28;;;;;;;11.73;100.00;100551.72;5008240;28;20025;-82
2022/11/09 09:01:07;;;;;;;8.45;2.30;;;;;;;11.78;100.00;100550.81;5001121;28;20037;-81
2022/11/09 09:03:44;;;;;;;8.80;2.30;;;;;;;11.81;100.00;100536.69;5006662;28;20037;-82
2022/11/09 09:06:13;;;;;;;12.75;2.50;;;;;;;11.85;100.00;100535.78;5015196;28;20017;-82
2022/11/09 09:08:42;;;;;;;6.05;1.85;;;;;;;11.87;100.00;100527.00;4990680;28;20033;-82
2022/11/09 09:11:30;;;;;;;12.48;2.47;;;;;;;11.93;100.00;100541.03;5003450;28;20285;-82
2022/11/09 09:14:14;;;;;;;8.13;2.20;;;;;;;11.95;100.00;100534.88;4986546;28;20213;-82
2022/11/09 09:16:44;;;;;;;9.07;3.15;;;;;;;12.00;100.00;100530.44;4967056;28;20054;-80
2022/11/09 09:19:12;;;;;;;9.25;2.22;;;;;;;12.05;100.00;100533.91;4973558;28;20047;-80
2022/11/09 09:21:40;;;;;;;8.43;2.35;;;;;;;12.07;100.00;100545.34;4984912;28;20193;-80
2022/11/09 09:24:09;;;;;;;7.38;2.58;;;;;;;12.12;100.00;100541.78;4953795;28;20062;-82
2022/11/09 09:26:38;;;;;;;7.28;2.13;;;;;;;12.15;100.00;100541.75;4977638;28;20050;-82
2022/11/09 09:29:06;;;;;;;11.75;2.30;;;;;;;12.18;100.00;100541.75;4975904;28;20065;-82
2022/11/09 09:31:35;;;;;;;8.40;1.95;;;;;;;12.21;100.00;100553.16;4986160;28;20052;-82
2022/11/09 09:34:04;;;;;;;8.05;2.72;;;;;;;12.27;100.00;100552.25;4996643;28;20856;-82
2022/11/09 09:36:34;;;;;;;10.27;2.28;;;;;;;12.30;100.00;100546.91;4969148;28;20049;-83
2022/11/09 09:39:02;;;;;;;9.38;2.72;;;;;;;12.33;100.00;100548.66;4948915;28;20422;-82
2022/11/09 09:41:37;;;;;;;10.40;2.38;;;;;;;12.38;100.00;100549.50;4991700;28;20077;-80
2022/11/09 09:44:39;;;;;;;8.60;2.70;;;;;;;12.41;100.00;100547.69;4977304;28;20590;-80
2022/11/09 09:47:41;;;;;;;13.10;2.92;;;;;;;12.45;100.00;100554.69;5000862;28;20053;-81
2022/11/09 09:50:21;;;;;;;9.88;2.78;;;;;;;12.52;100.00;100557.31;4976976;28;20041;-80
2022/11/09 09:52:57;;;;;;;11.35;2.67;;;;;;;12.57;100.00;100561.66;4983074;28;20054;-80
2022/11/09 09:55:59;;;;;;;11.65;2.55;;;;;;;12.61;100.00;100563.38;4987252;28;20106;-80
2022/11/09 09:58:31;;;;;;;13.27;3.28;;;;;;;12.66;100.00;100563.31;4975187;28;20098;-80
2022/11/09 10:01:21;;;;;;;12.70;2.45;;;;;;;12.71;100.00;100555.34;4991242;28;20132;-81
2022/11/09 10:03:52;;;;;;;11.90;2.13;;;;;;;12.76;100.00;100559.72;4972844;28;20476;-79
2022/11/09 10:07:03;;;;;;;10.25;2.70;;;;;;;12.79;100.00;100557.00;4986753;28;20042;-81
2022/11/09 10:09:59;;;;;;;10.45;2.60;;;;;;;12.83;100.00;100564.00;4980785;28;20150;-80
2022/11/09 10:12:37;;;;;;;7.38;2.35;;;;;;;12.90;100.00;100556.91;4986445;28;20045;-80
2022/11/09 10:15:23;;;;;;;8.68;2.80;;;;;;;12.95;100.00;100562.13;5012573;28;20045;-81
2022/11/09 10:17:57;;;;;;;8.48;2.53;;;;;;;12.96;100.00;100579.75;4991052;28;20538;-81
2022/11/09 10:20:46;;;;;;;6.65;2.10;;;;;;;13.01;100.00;100567.38;4987650;28;20062;-82
2022/11/09 10:23:38;;;;;;;8.30;2.05;;;;;;;13.09;100.00;100565.50;4993536;28;20438;-80
2022/11/09 10:26:38;;;;;;;8.25;3.03;;;;;;;13.20;100.00;100560.09;4985709;28;20065;-81
2022/11/09 10:29:15;;;;;;;8.82;2.22;;;;;;;13.24;100.00;100567.09;5008976;28;20034;-81
2022/11/09 10:31:46;;;;;;;10.75;2.20;;;;;;;13.28;100.00;100568.81;5001566;28;20049;-82
2022/11/09 10:34:36;;;;;;;10.27;2.15;;;;;;;13.30;100.00;100559.09;5000608;28;20050;-81
2022/11/09 10:37:20;;;;;;;9.65;2.53;;;;;;;13.34;100.00;100575.81;4987585;28;20042;-81
2022/11/09 10:40:12;;;;;;;11.35;2.30;;;;;;;13.32;100.00;100569.69;4980971;28;20056;-80
2022/11/09 10:43:04;;;;;;;11.07;2.28;;;;;;;13.31;100.00;100570.56;5024000;28;20056;-81
2022/11/09 10:46:04;;;;;;;16.98;2.92;;;;;;;13.39;100.00;100577.53;4995794;28;20046;-80
2022/11/09 10:49:18;;;;;;;9.98;2.85;;;;;;;13.50;100.00;100569.44;4985083;28;20031;-80
2022/11/09 10:52:38;;;;;;;9.95;2.90;;;;;;;13.64;100.00;100575.41;4997369;28;20534;-80
2022/11/09 10:55:37;;;;;;;7.75;2.13;;;;;;;13.77;100.00;100575.25;5003551;28;20042;-81
2022/11/09 10:58:33;;;;;;;12.30;3.53;;;;;;;13.75;100.00;100572.63;5009187;28;20039;-81
2022/11/09 11:01:35;;;;;;;13.70;2.83;;;;;;;13.74;100.00;100575.28;5015994;28;20060;-80
2022/11/09 11:04:24;;;;;;;13.68;3.17;;;;;;;13.74;100.00;100578.84;4990703;28;20050;-82
2022/11/09 11:07:14;;;;;;;10.70;2.65;;;;;;;13.79;100.00;100579.63;4983610;28;21061;-81
2022/11/09 11:10:15;;;;;;;5.80;2.45;;;;;;;13.77;100.00;100586.72;4992455;28;20051;-81
2022/11/09 11:13:06;;;;;;;8.73;2.53;;;;;;;13.74;100.00;100580.59;5000888;28;20261;-82
2022/11/09 11:15:55;;;;;;;14.77;2.67;;;;;;;13.72;100.00;100575.31;5002337;28;20043;-81
2022/11/09 11:18:45;;;;;;;11.00;2.63;;;;;;;13.67;100.00;100576.25;5012276;28;20041;-81
2022/11/09 11:21:33;;;;;;;13.57;3.70;;;;;;;13.60;100.00;100572.84;5000281;28;20050;-81
2022/11/09 11:24:20;;;;;;;10.18;2.95;;;;;;;13.60;100.00;100563.13;4990815;28;20328;-80
2022/11/09 11:27:22;;;;;;;8.88;2.50;;;;;;;13.61;100.00;100570.19;4971464;28;20050;-81
2022/11/09 11:30:27;;;;;;;8.40;2.15;;;;;;;13.60;100.00;100576.34;5007759;28;20502;-81
2022/11/09 11:33:17;;;;;;;8.70;2.30;;;;;;;13.58;100.00;100575.50;5007824;28;20041;-81
2022/11/09 11:36:17;;;;;;;9.18;3.25;;;;;;;13.48;100.00;100579.19;4981819;28;20058;-81
2022/11/09 11:39:31;;;;;;;14.88;4.15;;;;;;;13.40;100.00;100584.56;4995742;28;20259;-80
2022/11/09 11:42:32;;;;;;;6.47;2.10;;;;;;;13.35;100.00;100588.19;4969633;28;20056;-80
2022/11/09 11:45:36;;;;;;;11.38;2.28;;;;;;;13.31;100.00;100584.69;4985696;28;20077;-81
2022/11/09 11:49:02;;;;;;;13.35;2.33;;;;;;;13.29;100.00;100575.88;5001589;28;20065;-81